Time;durP1;ratioP1;P1;durP2;ratioP2;P2;SDS_P1;SDS_P2;PMS_P1;PMS_P2;Temp;Humidity;BMP_temperature;BMP_pressure;BME280_temperature;BME280_humidity;BME280_pressure;Samples;Min_cycle;Max_cycle;Signal;HPM_P1;HPM_P2
2022/06/19 00:01:36;;;;;;;3.47;2.90;;;;;;;17.17;50.20;99404.25;5031844;28;20124;-58
2022/06/19 00:04:04;;;;;;;4.65;2.67;;;;;;;17.21;50.08;99406.38;5030654;28;20052;-59
2022/06/19 00:06:30;;;;;;;4.15;2.72;;;;;;;17.22;49.97;99393.72;5032308;28;20378;-60
2022/06/19 00:08:55;;;;;;;6.90;3.05;;;;;;;17.24;50.16;99394.38;5032136;28;20025;-60
2022/06/19 00:11:22;;;;;;;6.82;3.30;;;;;;;17.30;50.15;99398.25;5031889;28;20528;-59
2022/06/19 00:13:48;;;;;;;5.15;3.25;;;;;;;17.27;50.05;99382.38;5031426;28;20030;-60
2022/06/19 00:16:14;;;;;;;5.65;3.15;;;;;;;17.31;50.10;99383.69;5030899;28;20033;-60
2022/06/19 00:18:39;;;;;;;4.68;2.80;;;;;;;17.34;50.21;99384.16;5031874;28;20030;-59
2022/06/19 00:21:07;;;;;;;4.50;3.30;;;;;;;17.36;50.17;99392.97;5032257;28;20056;-60
2022/06/19 00:23:32;;;;;;;4.22;3.40;;;;;;;17.37;50.13;99377.56;5031473;28;20029;-60
2022/06/19 00:25:58;;;;;;;5.75;3.08;;;;;;;17.40;50.24;99376.38;5031713;28;20049;-59
2022/06/19 00:28:23;;;;;;;5.85;3.25;;;;;;;17.43;50.11;99384.13;5031854;28;20128;-58
2022/06/19 00:30:49;;;;;;;6.82;3.38;;;;;;;17.45;50.20;99373.97;5032025;28;20025;-60
2022/06/19 00:33:14;;;;;;;6.72;3.13;;;;;;;17.47;50.18;99371.91;5031121;28;20041;-60
2022/06/19 00:35:40;;;;;;;5.63;2.95;;;;;;;17.47;50.18;99378.16;5031477;28;20111;-60
2022/06/19 00:38:05;;;;;;;4.53;3.00;;;;;;;17.49;50.30;99386.09;5031603;28;20619;-58
2022/06/19 00:40:31;;;;;;;5.32;2.92;;;;;;;17.50;50.21;99387.78;5031563;28;20029;-60
2022/06/19 00:42:57;;;;;;;4.40;2.92;;;;;;;17.47;50.16;99377.31;5031590;28;20450;-58
2022/06/19 00:45:31;;;;;;;3.80;3.00;;;;;;;17.58;49.93;99387.72;5031339;28;20033;-57
2022/06/19 00:47:57;;;;;;;4.28;2.67;;;;;;;17.52;49.44;99382.22;5032317;28;20363;-59
2022/06/19 00:50:30;;;;;;;3.42;2.70;;;;;;;17.57;48.96;99377.91;5031808;28;20041;-59
2022/06/19 00:52:56;;;;;;;3.75;2.53;;;;;;;17.51;49.06;99381.34;5011343;28;20076;-60
2022/06/19 00:55:49;;;;;;;3.58;2.58;;;;;;;17.56;48.80;99375.41;5011662;28;20044;-61
2022/06/19 00:58:15;;;;;;;4.20;2.40;;;;;;;17.56;48.87;99362.69;5011670;28;20037;-59
2022/06/19 01:00:42;;;;;;;3.40;2.70;;;;;;;17.56;48.19;99370.00;5011863;28;20117;-59
2022/06/19 01:03:51;;;;;;;3.50;2.35;;;;;;;17.73;48.42;99370.69;5013725;28;20025;-62
2022/06/19 01:06:20;;;;;;;4.85;2.63;;;;;;;17.64;48.46;99369.91;4989237;28;20046;-60
2022/06/19 01:08:47;;;;;;;5.63;2.65;;;;;;;17.56;48.46;99351.88;5008890;28;20053;-59
2022/06/19 01:11:14;;;;;;;3.88;2.30;;;;;;;17.59;48.44;99347.97;5013056;28;20037;-61
2022/06/19 01:13:40;;;;;;;3.88;2.75;;;;;;;17.60;48.59;99353.22;5029309;28;20429;-61
2022/06/19 01:16:07;;;;;;;4.97;2.22;;;;;;;17.63;48.30;99344.72;5030886;28;20513;-59
2022/06/19 01:18:35;;;;;;;5.28;2.75;;;;;;;17.68;48.24;99348.75;5031650;28;20029;-63
2022/06/19 01:21:10;;;;;;;4.43;2.40;;;;;;;17.73;48.24;99349.91;5031145;28;20107;-61
2022/06/19 01:23:41;;;;;;;5.55;2.60;;;;;;;17.76;48.09;99343.25;5030496;28;20033;-59
2022/06/19 01:26:11;;;;;;;3.75;2.30;;;;;;;17.75;47.99;99345.13;5010272;28;20137;-59
2022/06/19 01:28:45;;;;;;;2.65;1.88;;;;;;;17.74;47.86;99351.59;5029781;28;20044;-60
2022/06/19 01:31:46;;;;;;;4.40;2.22;;;;;;;17.92;47.69;99343.13;5029937;28;20045;-59
2022/06/19 01:34:28;;;;;;;3.38;2.13;;;;;;;17.82;48.07;99344.41;5026109;28;20045;-59
2022/06/19 01:37:00;;;;;;;2.83;1.80;;;;;;;17.87;47.72;99332.00;5030323;28;20037;-58
2022/06/19 01:39:26;;;;;;;3.67;2.08;;;;;;;17.78;47.39;99324.97;5029911;28;20039;-59
2022/06/19 01:41:52;;;;;;;3.72;2.05;;;;;;;17.93;47.36;99336.69;5030405;28;20034;-60
2022/06/19 01:44:17;;;;;;;3.08;1.77;;;;;;;18.03;47.07;99338.31;5030240;28;20406;-58
2022/06/19 01:46:43;;;;;;;3.63;2.10;;;;;;;17.88;47.09;99303.91;5030710;28;20117;-59
2022/06/19 01:49:08;;;;;;;4.63;1.95;;;;;;;18.14;46.83;99340.56;5029737;28;20025;-59
2022/06/19 01:51:34;;;;;;;5.47;2.10;;;;;;;18.17;46.71;99323.94;5030497;28;20033;-59
2022/06/19 01:54:06;;;;;;;2.15;1.90;;;;;;;18.28;46.50;99324.50;5030535;28;20159;-60
2022/06/19 01:56:32;;;;;;;2.80;2.13;;;;;;;18.28;46.63;99328.06;5030248;28;20100;-60
2022/06/19 01:59:07;;;;;;;2.28;2.08;;;;;;;18.24;46.40;99293.38;5029666;28;20025;-59
2022/06/19 02:01:35;;;;;;;6.00;2.40;;;;;;;18.19;46.23;99294.78;5030749;28;20040;-60
2022/06/19 02:04:01;;;;;;;2.92;2.08;;;;;;;18.42;46.46;99326.38;5030206;28;20385;-59
2022/06/19 02:06:31;;;;;;;3.33;2.03;;;;;;;18.46;46.07;99333.09;5027328;28;20372;-59
2022/06/19 02:09:00;;;;;;;3.90;2.20;;;;;;;18.48;45.92;99330.22;5027406;28;20136;-59
2022/06/19 02:11:26;;;;;;;4.10;2.20;;;;;;;18.46;45.92;99322.25;5027940;28;20037;-60
2022/06/19 02:13:53;;;;;;;2.38;1.95;;;;;;;18.49;45.94;99319.16;5027723;28;20079;-60
2022/06/19 02:16:22;;;;;;;2.25;2.05;;;;;;;18.58;45.93;99322.63;5028526;28;20473;-59
2022/06/19 02:18:50;;;;;;;2.42;2.08;;;;;;;18.57;45.76;99311.97;5028037;28;20470;-62
2022/06/19 02:21:19;;;;;;;5.50;2.38;;;;;;;18.65;45.96;99309.16;5026163;28;20103;-61
2022/06/19 02:23:49;;;;;;;3.92;2.20;;;;;;;18.69;45.65;99318.59;5029867;28;20036;-60
2022/06/19 02:26:15;;;;;;;2.75;2.13;;;;;;;18.75;45.48;99314.28;5030639;28;20049;-61
2022/06/19 02:28:48;;;;;;;2.53;2.13;;;;;;;18.80;45.24;99306.41;5029101;28;20048;-61
2022/06/19 02:31:16;;;;;;;3.08;2.13;;;;;;;18.77;45.36;99306.78;5029939;28;20037;-60
2022/06/19 02:33:53;;;;;;;5.43;2.00;;;;;;;18.72;45.03;99282.13;5030340;28;20525;-59
2022/06/19 02:36:34;;;;;;;4.35;2.10;;;;;;;18.94;45.11;99312.81;5029642;28;20022;-59
2022/06/19 02:39:12;;;;;;;2.97;2.35;;;;;;;18.89;45.22;99321.53;5032269;28;20470;-60
2022/06/19 02:41:45;;;;;;;2.67;2.10;;;;;;;18.93;44.93;99317.44;5033656;28;20385;-62
2022/06/19 02:44:11;;;;;;;4.95;2.10;;;;;;;18.89;44.91;99301.72;5033711;28;20044;-59
2022/06/19 02:46:36;;;;;;;3.22;2.20;;;;;;;18.94;44.72;99301.97;5033909;28;20107;-60
2022/06/19 02:49:03;;;;;;;2.58;1.67;;;;;;;19.00;44.70;99300.41;5033795;28;20112;-61
2022/06/19 02:51:28;;;;;;;4.00;2.00;;;;;;;19.00;44.79;99284.97;5033641;28;20503;-60
2022/06/19 02:53:54;;;;;;;4.15;2.10;;;;;;;19.08;44.58;99287.56;5034124;28;20484;-60
2022/06/19 02:56:20;;;;;;;2.55;2.08;;;;;;;19.15;44.70;99282.19;5032179;28;20193;-61
2022/06/19 02:58:46;;;;;;;2.70;2.00;;;;;;;19.28;43.92;99278.75;5033233;28;20038;-60
2022/06/19 03:01:13;;;;;;;2.20;2.00;;;;;;;19.50;43.53;99278.75;5032683;28;20033;-60
2022/06/19 03:03:38;;;;;;;3.38;2.20;;;;;;;19.67;43.34;99279.31;5032797;28;20437;-59
2022/06/19 03:06:05;;;;;;;2.92;2.20;;;;;;;19.90;42.82;99281.78;5033449;28;20163;-60
2022/06/19 03:08:30;;;;;;;3.58;2.17;;;;;;;20.12;42.57;99273.59;5032990;28;20048;-59
2022/06/19 03:10:56;;;;;;;4.45;1.77;;;;;;;20.38;41.75;99280.22;5033291;28;20030;-58
2022/06/19 03:13:22;;;;;;;5.07;2.30;;;;;;;20.69;41.11;99270.72;5033857;28;20424;-60
2022/06/19 03:15:59;;;;;;;3.35;2.10;;;;;;;21.12;40.47;99279.66;5033927;28;20033;-60
2022/06/19 03:18:24;;;;;;;2.97;2.00;;;;;;;21.29;39.90;99269.19;5033326;28;20079;-61
2022/06/19 03:20:49;;;;;;;2.00;1.80;;;;;;;21.49;39.07;99252.88;5032886;28;20202;-60
2022/06/19 03:23:15;;;;;;;3.28;2.17;;;;;;;21.69;39.15;99262.94;5033226;28;20083;-59
2022/06/19 03:25:40;;;;;;;4.30;1.90;;;;;;;21.82;38.91;99260.22;5032911;28;20092;-62
2022/06/19 03:28:06;;;;;;;2.83;1.77;;;;;;;21.77;38.48;99219.97;5032729;28;20064;-59
2022/06/19 03:30:31;;;;;;;2.30;2.03;;;;;;;22.05;37.87;99237.13;5032433;28;20036;-60
2022/06/19 03:32:57;;;;;;;3.35;1.98;;;;;;;22.16;37.86;99236.44;5032240;28;20026;-60
2022/06/19 03:35:22;;;;;;;5.80;1.88;;;;;;;22.28;37.74;99235.78;5032469;28;20087;-60
2022/06/19 03:37:48;;;;;;;1.98;1.80;;;;;;;22.35;37.34;99229.25;5031067;28;20036;-60
2022/06/19 03:40:14;;;;;;;4.53;1.90;;;;;;;22.49;37.03;99235.53;5032349;28;20113;-60
2022/06/19 03:42:39;;;;;;;3.22;1.75;;;;;;;22.57;36.92;99233.59;5032764;28;20128;-60
2022/06/19 03:45:07;;;;;;;4.78;1.77;;;;;;;22.68;36.93;99229.34;5032132;28;20030;-60
2022/06/19 03:47:32;;;;;;;2.25;1.90;;;;;;;22.67;36.58;99233.13;5031957;28;20036;-60
2022/06/19 03:49:58;;;;;;;3.50;2.00;;;;;;;22.59;36.57;99226.03;5032357;28;20029;-60
2022/06/19 03:52:23;;;;;;;4.60;1.70;;;;;;;22.34;36.71;99202.19;5031717;28;20075;-61
2022/06/19 03:54:49;;;;;;;4.50;1.98;;;;;;;22.33;37.34;99214.16;5032416;28;20378;-59
2022/06/19 03:57:14;;;;;;;3.50;1.80;;;;;;;22.32;37.58;99215.22;5032385;28;20397;-59
2022/06/19 03:59:40;;;;;;;3.10;1.80;;;;;;;22.18;37.23;99219.88;5032663;28;20080;-59
2022/06/19 04:02:08;;;;;;;2.97;1.65;;;;;;;21.91;37.58;99185.34;5032061;28;20029;-60
2022/06/19 04:04:35;;;;;;;2.75;2.00;;;;;;;21.87;37.25;99195.00;5032178;28;20076;-61
2022/06/19 04:07:01;;;;;;;3.97;1.60;;;;;;;21.93;37.86;99210.50;5031958;28;20083;-60
2022/06/19 04:09:26;;;;;;;2.90;2.03;;;;;;;21.94;37.92;99205.91;5031854;28;20543;-61
2022/06/19 04:11:52;;;;;;;3.33;1.67;;;;;;;21.90;38.05;99205.47;5031720;28;20063;-59
2022/06/19 04:14:17;;;;;;;2.45;1.70;;;;;;;21.93;38.22;99198.78;5032314;28;20033;-60
2022/06/19 04:16:43;;;;;;;4.65;1.88;;;;;;;21.97;38.07;99197.28;5031875;28;20508;-62
2022/06/19 04:19:09;;;;;;;3.53;1.70;;;;;;;22.16;37.98;99200.19;5032361;28;20045;-61
2022/06/19 04:21:41;;;;;;;1.95;1.73;;;;;;;22.36;37.77;99205.53;5032132;28;20033;-60
2022/06/19 04:24:09;;;;;;;2.90;1.67;;;;;;;22.50;37.33;99200.88;5031128;28;20028;-61
2022/06/19 04:26:37;;;;;;;2.10;1.90;;;;;;;22.69;37.02;99201.00;5031490;28;20140;-60
2022/06/19 04:29:04;;;;;;;2.03;1.80;;;;;;;22.76;36.59;99210.81;5032079;28;20079;-60
2022/06/19 04:31:29;;;;;;;3.97;2.05;;;;;;;22.79;36.48;99185.00;5031842;28;20030;-61
2022/06/19 04:33:55;;;;;;;4.40;2.00;;;;;;;23.07;36.16;99209.16;5031357;28;20427;-60
2022/06/19 04:36:22;;;;;;;1.90;1.67;;;;;;;23.25;35.89;99198.50;5031502;28;20038;-61
2022/06/19 04:38:50;;;;;;;2.45;2.13;;;;;;;23.45;35.42;99209.31;5031671;28;20078;-62
2022/06/19 04:41:31;;;;;;;2.05;1.95;;;;;;;23.76;35.32;99204.81;5032086;28;20087;-60
2022/06/19 04:43:58;;;;;;;2.38;1.70;;;;;;;23.84;34.92;99193.56;5031365;28;20033;-60
2022/06/19 04:46:24;;;;;;;2.60;1.75;;;;;;;24.10;34.40;99201.75;5031127;28;20068;-60
2022/06/19 04:48:50;;;;;;;5.55;1.92;;;;;;;24.25;34.04;99180.31;5032672;28;20115;-61
2022/06/19 04:51:16;;;;;;;3.63;2.10;;;;;;;24.49;33.64;99186.72;5031414;28;20052;-60
2022/06/19 04:53:42;;;;;;;3.10;1.95;;;;;;;24.69;33.17;99179.28;5030432;28;20029;-60
2022/06/19 04:56:10;;;;;;;2.03;1.63;;;;;;;24.82;33.33;99183.75;5031246;28;20364;-60
2022/06/19 04:58:36;;;;;;;2.88;2.05;;;;;;;24.77;33.02;99160.66;5031641;28;20039;-63
2022/06/19 05:01:06;;;;;;;5.93;1.90;;;;;;;25.08;32.71;99177.03;5031026;28;20041;-60
2022/06/19 05:03:32;;;;;;;2.80;1.70;;;;;;;25.74;31.74;99151.47;5031026;28;20037;-60
2022/06/19 05:05:57;;;;;;;2.38;2.10;;;;;;;26.89;29.82;99153.50;5030575;28;20026;-60
2022/06/19 05:08:23;;;;;;;3.78;2.03;;;;;;;28.45;27.43;99155.69;5031658;28;20029;-61
2022/06/19 05:10:49;;;;;;;3.88;1.83;;;;;;;30.12;25.29;99151.16;5030945;28;20044;-60
2022/06/19 05:13:22;;;;;;;3.40;1.80;;;;;;;31.41;24.34;99144.19;5031187;28;20108;-60
2022/06/19 05:15:49;;;;;;;3.88;1.70;;;;;;;31.48;23.72;99164.06;5031061;28;20045;-61
2022/06/19 05:18:16;;;;;;;3.63;1.83;;;;;;;31.10;23.41;99155.22;5031720;28;20033;-61
2022/06/19 05:20:42;;;;;;;2.67;1.80;;;;;;;30.81;24.08;99128.16;5030755;28;20408;-60
2022/06/19 05:23:09;;;;;;;2.58;1.60;;;;;;;31.00;23.74;99140.31;5029570;28;20129;-60
2022/06/19 05:25:35;;;;;;;3.58;1.55;;;;;;;31.01;24.36;99171.56;5029257;28;20056;-60
2022/06/19 05:28:02;;;;;;;4.32;1.60;;;;;;;30.41;24.63;99175.59;5029427;28;20535;-61
2022/06/19 05:30:28;;;;;;;4.13;1.55;;;;;;;29.69;25.73;99175.25;5028962;28;20436;-59
2022/06/19 05:32:53;;;;;;;3.03;1.92;;;;;;;28.90;27.11;99168.28;5030517;28;20062;-59
2022/06/19 05:35:19;;;;;;;3.85;1.60;;;;;;;28.34;28.43;99163.84;5030024;28;20029;-61
2022/06/19 05:37:45;;;;;;;5.63;1.73;;;;;;;28.14;28.36;99167.13;5030754;28;20064;-60
2022/06/19 05:40:10;;;;;;;4.28;1.98;;;;;;;28.17;28.39;99169.41;5030453;28;20095;-60
2022/06/19 05:42:37;;;;;;;3.75;1.83;;;;;;;28.07;28.72;99164.56;5029819;28;20482;-60
2022/06/19 05:45:04;;;;;;;4.63;1.75;;;;;;;28.21;28.38;99159.56;5030436;28;20064;-59
2022/06/19 05:47:30;;;;;;;2.13;1.55;;;;;;;29.34;27.01;99163.69;5028972;28;20366;-59
2022/06/19 05:49:58;;;;;;;4.20;1.77;;;;;;;30.02;25.92;99159.41;5029181;28;20051;-60
2022/06/19 05:52:24;;;;;;;2.92;1.80;;;;;;;29.47;26.45;99156.91;5030452;28;20466;-59
2022/06/19 05:54:52;;;;;;;4.28;1.80;;;;;;;29.14;27.13;99164.34;5030190;28;20040;-60
2022/06/19 05:57:18;;;;;;;4.28;1.75;;;;;;;29.21;27.21;99151.19;5029085;28;20032;-59
2022/06/19 05:59:44;;;;;;;3.17;1.90;;;;;;;29.60;26.26;99150.91;5029434;28;20048;-61
2022/06/19 06:02:12;;;;;;;3.80;1.75;;;;;;;30.19;26.03;99150.91;5029493;28;20041;-59
2022/06/19 06:04:38;;;;;;;2.97;1.67;;;;;;;31.21;24.29;99126.50;5029456;28;20044;-60
2022/06/19 06:07:07;;;;;;;4.72;1.60;;;;;;;34.32;21.04;99143.72;5030786;28;20033;-59
2022/06/19 06:09:33;;;;;;;2.67;1.63;;;;;;;37.52;17.22;99132.84;5029807;28;20029;-60
2022/06/19 06:11:58;;;;;;;2.90;1.55;;;;;;;39.67;14.99;99124.69;5030736;28;20120;-61
2022/06/19 06:14:24;;;;;;;3.40;1.75;;;;;;;39.80;15.02;99136.81;5033400;28;20112;-61
2022/06/19 06:16:49;;;;;;;3.13;1.77;;;;;;;40.26;14.17;99130.59;5034465;28;20374;-64
2022/06/19 06:19:15;;;;;;;3.38;1.50;;;;;;;41.79;12.91;99120.00;5034339;28;20037;-62
2022/06/19 06:21:42;;;;;;;3.83;1.55;;;;;;;43.06;11.71;99118.19;5033907;28;20041;-61
2022/06/19 06:24:08;;;;;;;2.92;1.55;;;;;;;44.26;10.96;99127.59;5033051;28;20072;-59
2022/06/19 06:26:34;;;;;;;4.10;1.50;;;;;;;44.10;11.06;99116.34;5034536;28;20179;-61
2022/06/19 06:29:00;;;;;;;3.22;1.58;;;;;;;42.35;12.47;99127.00;5033759;28;20339;-60
2022/06/19 06:31:26;;;;;;;2.92;1.38;;;;;;;40.33;13.96;99114.09;5033049;28;20507;-61
2022/06/19 06:33:52;;;;;;;3.55;1.95;;;;;;;38.18;15.51;99111.69;5034167;28;20469;-64
2022/06/19 06:36:18;;;;;;;2.90;1.65;;;;;;;36.19;17.36;99072.53;5034754;28;20037;-60
2022/06/19 06:38:44;;;;;;;2.88;1.58;;;;;;;34.85;19.04;99091.78;5033343;28;20104;-61
2022/06/19 06:41:13;;;;;;;2.95;1.60;;;;;;;33.69;20.90;99109.50;5033667;28;20041;-61
2022/06/19 06:43:44;;;;;;;3.50;1.60;;;;;;;33.42;21.56;99109.00;5033203;28;20037;-60
2022/06/19 06:46:24;;;;;;;1.65;1.30;;;;;;;32.62;22.19;99105.50;5033981;28;20036;-60
2022/06/19 06:48:52;;;;;;;5.70;1.48;;;;;;;30.95;23.85;99107.16;5033501;28;20029;-61
2022/06/19 06:51:22;;;;;;;3.83;1.60;;;;;;;30.10;25.17;99109.22;5033838;28;20052;-60
2022/06/19 06:53:48;;;;;;;3.15;1.58;;;;;;;30.13;25.39;99108.66;5034371;28;20116;-61
2022/06/19 06:56:14;;;;;;;3.72;1.48;;;;;;;30.46;24.84;99078.09;5033678;28;20168;-61
2022/06/19 06:58:40;;;;;;;3.88;1.30;;;;;;;30.64;24.73;99105.22;5033126;28;20036;-60
2022/06/19 07:01:24;;;;;;;1.83;1.50;;;;;;;30.73;25.04;99088.91;5032862;28;20549;-60
2022/06/19 07:03:54;;;;;;;5.55;1.60;;;;;;;31.24;23.69;99065.13;5029278;28;20500;-59
2022/06/19 07:06:21;;;;;;;3.35;1.33;;;;;;;32.60;22.11;99072.50;5032176;28;20063;-61
2022/06/19 07:08:47;;;;;;;2.60;1.33;;;;;;;32.77;22.34;99040.78;5032959;28;20029;-62
2022/06/19 07:11:18;;;;;;;3.47;1.65;;;;;;;33.25;21.36;99031.72;5033051;28;20394;-63
2022/06/19 07:13:43;;;;;;;7.20;1.48;;;;;;;34.48;20.25;99049.84;5033958;28;20033;-59
2022/06/19 07:16:09;;;;;;;4.40;1.70;;;;;;;34.85;19.92;99064.81;5033162;28;20029;-55
2022/06/19 07:18:35;;;;;;;4.93;1.52;;;;;;;34.18;20.56;99063.91;5033212;28;20029;-59
2022/06/19 07:21:00;;;;;;;5.00;1.25;;;;;;;33.76;21.03;99057.22;5033440;28;20031;-59
2022/06/19 07:23:26;;;;;;;2.65;1.45;;;;;;;32.78;21.33;99068.19;5032430;28;20028;-59
2022/06/19 07:25:51;;;;;;;4.40;1.27;;;;;;;31.31;23.04;99065.66;5033126;28;20053;-61
2022/06/19 07:28:17;;;;;;;4.10;1.35;;;;;;;29.89;24.85;99047.59;5032993;28;20156;-61
2022/06/19 07:30:43;;;;;;;7.63;1.60;;;;;;;28.97;27.01;99066.13;5031995;28;20060;-59
2022/06/19 07:33:09;;;;;;;4.65;1.60;;;;;;;28.17;28.67;99075.84;5032634;28;20036;-59
2022/06/19 07:35:34;;;;;;;5.78;1.38;;;;;;;27.51;29.64;99068.44;5031763;28;20037;-60
2022/06/19 07:37:59;;;;;;;2.13;1.35;;;;;;;26.90;29.94;99061.78;5032725;28;20428;-58
2022/06/19 07:40:26;;;;;;;5.43;1.60;;;;;;;26.26;31.05;99034.56;5033219;28;20033;-63
2022/06/19 07:42:51;;;;;;;2.67;1.50;;;;;;;26.40;30.91;99049.66;5032953;28;20064;-57
2022/06/19 07:45:17;;;;;;;2.10;1.38;;;;;;;26.63;30.31;99045.91;5032716;28;20457;-57
2022/06/19 07:50:27;;;;;;;2.38;1.60;;;;;;;26.82;30.45;99053.09;5032692;28;20095;-61
2022/06/19 07:52:53;;;;;;;5.35;1.70;;;;;;;26.70;30.98;99053.19;5032504;28;20442;-59
2022/06/19 07:55:39;;;;;;;3.55;1.70;;;;;;;26.70;30.30;99043.03;5032925;28;20392;-62
2022/06/19 07:58:05;;;;;;;1.90;1.45;;;;;;;26.43;31.47;99045.59;5014869;28;20033;-62
2022/06/19 08:00:34;;;;;;;3.42;1.27;;;;;;;26.88;30.57;99050.19;5032438;28;20035;-60
2022/06/19 08:02:59;;;;;;;6.55;1.67;;;;;;;27.87;28.94;99055.13;5032758;28;20029;-61
2022/06/19 08:05:36;;;;;;;1.40;1.30;;;;;;;29.67;26.43;99050.56;5032238;28;20473;-59
2022/06/19 08:08:05;;;;;;;4.13;1.70;;;;;;;31.54;24.12;99038.47;5030484;28;20040;-60
2022/06/19 08:10:35;;;;;;;2.22;1.27;;;;;;;33.81;21.71;99026.63;5030508;28;20108;-63
2022/06/19 08:13:00;;;;;;;2.28;1.30;;;;;;;34.84;19.87;99028.97;5031198;28;20056;-60
2022/06/19 08:15:26;;;;;;;2.80;1.33;;;;;;;34.49;20.20;99021.78;5021738;28;20064;-66
2022/06/19 08:17:52;;;;;;;2.75;1.40;;;;;;;33.81;21.08;99020.25;5028032;28;20454;-60
2022/06/19 08:20:19;;;;;;;2.83;1.20;;;;;;;34.06;20.84;99028.25;5031109;28;20532;-59
2022/06/19 08:22:44;;;;;;;2.03;1.30;;;;;;;34.86;19.54;98965.53;5029555;28;20109;-60
2022/06/19 08:25:12;;;;;;;2.47;1.40;;;;;;;35.26;19.50;99002.06;5027500;28;20121;-61
2022/06/19 08:27:42;;;;;;;2.90;1.48;;;;;;;34.18;20.25;98994.44;5029240;28;20033;-59
2022/06/19 08:30:14;;;;;;;4.47;1.30;;;;;;;33.15;21.96;98988.28;5028085;28;20545;-59
2022/06/19 08:32:40;;;;;;;3.35;1.23;;;;;;;32.15;22.99;98980.31;5029191;28;20141;-60
2022/06/19 08:35:06;;;;;;;4.60;1.40;;;;;;;31.25;24.26;98970.00;5026676;28;20115;-57
2022/06/19 08:37:33;;;;;;;3.60;1.77;;;;;;;30.64;24.99;98969.03;5030027;28;20052;-58
2022/06/19 08:39:59;;;;;;;1.50;1.40;;;;;;;29.98;26.25;98963.16;5053814;28;20029;-61
2022/06/19 08:42:38;;;;;;;2.20;1.35;;;;;;;29.61;26.63;98981.56;5027367;28;20040;-61
2022/06/19 08:45:03;;;;;;;1.67;1.58;;;;;;;29.21;28.00;98967.31;5019208;28;20065;-62
2022/06/19 08:47:53;;;;;;;4.57;1.38;;;;;;;29.23;27.44;98961.56;5020990;28;20106;-62
2022/06/19 08:50:34;;;;;;;3.13;1.60;;;;;;;29.11;27.81;98960.94;5029756;28;20067;-67
2022/06/19 08:53:18;;;;;;;1.98;1.63;;;;;;;29.01;27.96;98967.22;5029580;28;20446;-61
2022/06/19 08:55:59;;;;;;;2.15;1.70;;;;;;;28.91;28.25;98952.28;5029642;28;20026;-62
2022/06/19 08:58:44;;;;;;;3.88;1.77;;;;;;;28.77;28.65;98956.56;5066653;28;20383;-61
2022/06/19 09:01:50;;;;;;;2.42;1.60;;;;;;;28.79;28.13;98929.63;5064196;28;20079;-66
2022/06/19 09:07:42;;;;;;;2.58;1.90;;;;;;;29.39;27.89;98940.38;5067458;28;20051;-62
2022/06/19 09:10:13;;;;;;;7.57;2.00;;;;;;;29.40;27.76;98942.03;5067751;28;20032;-62
2022/06/19 09:13:09;;;;;;;1.95;1.52;;;;;;;29.63;27.09;98938.00;5065530;28;20096;-62
2022/06/19 09:15:55;;;;;;;1.73;1.63;;;;;;;29.37;27.57;98918.59;5065306;28;20173;-60
2022/06/19 09:18:53;;;;;;;6.72;1.77;;;;;;;29.68;27.14;98930.84;5062902;28;20044;-62
2022/06/19 09:21:58;;;;;;;4.50;1.70;;;;;;;29.72;26.92;98927.25;5065710;28;20017;-63
2022/06/19 09:24:47;;;;;;;4.05;1.67;;;;;;;29.61;27.21;98920.88;5062997;28;20084;-63
2022/06/19 09:27:15;;;;;;;3.42;1.73;;;;;;;29.14;27.82;98930.06;5064659;28;20728;-63
2022/06/19 09:29:50;;;;;;;3.05;1.90;;;;;;;28.73;28.15;98917.75;5062819;28;20025;-63
2022/06/19 09:32:30;;;;;;;6.13;1.92;;;;;;;28.24;28.98;98923.47;5065924;28;20029;-61
2022/06/19 09:35:07;;;;;;;4.28;2.08;;;;;;;27.75;30.38;98925.19;5064322;28;20136;-61
2022/06/19 09:37:47;;;;;;;4.03;1.92;;;;;;;27.61;30.48;98911.84;5063197;28;20043;-60
2022/06/19 09:40:29;;;;;;;3.08;2.13;;;;;;;27.77;30.67;98912.03;5062476;28;20024;-60
2022/06/19 09:43:26;;;;;;;5.75;2.00;;;;;;;27.97;29.91;98894.03;5041000;28;20120;-62
2022/06/19 09:46:06;;;;;;;1.92;1.75;;;;;;;27.81;30.18;98891.16;5046855;28;20080;-61
2022/06/19 09:48:49;;;;;;;3.35;1.95;;;;;;;27.69;30.80;98883.06;5043019;28;20104;-61
2022/06/19 09:51:54;;;;;;;3.38;1.95;;;;;;;27.65;30.44;98855.25;5067892;28;20025;-60
2022/06/19 09:54:22;;;;;;;2.42;1.63;;;;;;;27.70;30.38;98859.13;5045036;28;20048;-62
2022/06/19 09:57:00;;;;;;;2.25;1.73;;;;;;;27.89;30.46;98843.91;5043640;28;20403;-61
2022/06/19 09:59:37;;;;;;;3.47;2.10;;;;;;;28.22;29.94;98839.25;5041334;28;20052;-59
2022/06/19 10:02:50;;;;;;;5.88;2.20;;;;;;;28.58;29.18;98837.78;5045345;28;20033;-63
2022/06/19 10:05:33;;;;;;;4.97;1.85;;;;;;;28.48;29.36;98841.31;5026810;28;20091;-62
2022/06/19 10:08:10;;;;;;;5.63;2.38;;;;;;;28.16;29.90;98834.78;5038195;28;20064;-62
2022/06/19 10:10:41;;;;;;;4.43;1.88;;;;;;;27.99;30.46;98825.84;5029205;28;20026;-61
2022/06/19 10:13:15;;;;;;;4.13;2.00;;;;;;;28.09;30.26;98825.91;5031578;28;20025;-62
2022/06/19 10:15:42;;;;;;;3.90;2.17;;;;;;;28.16;29.69;98818.28;5032383;28;20060;-60
2022/06/19 10:18:21;;;;;;;3.45;2.00;;;;;;;28.30;29.46;98817.81;5031583;28;20461;-61
2022/06/19 10:20:55;;;;;;;3.83;2.08;;;;;;;28.36;29.61;98806.56;5031595;28;20029;-61
2022/06/19 10:23:40;;;;;;;6.38;2.33;;;;;;;28.42;29.40;98810.16;5031366;28;20120;-62
2022/06/19 10:26:22;;;;;;;4.90;2.40;;;;;;;28.24;29.63;98797.69;5031847;28;20188;-62
2022/06/19 10:29:00;;;;;;;4.10;2.08;;;;;;;28.29;29.90;98803.22;5031425;28;20029;-62
2022/06/19 10:31:41;;;;;;;6.60;2.42;;;;;;;28.46;29.48;98797.53;5029379;28;20037;-64
2022/06/19 10:34:39;;;;;;;5.80;2.50;;;;;;;28.86;29.25;98778.72;5031249;28;20090;-64
2022/06/19 10:37:07;;;;;;;4.45;1.92;;;;;;;28.75;28.78;98769.56;5030324;28;20033;-64
2022/06/19 10:39:56;;;;;;;8.93;2.35;;;;;;;28.71;29.03;98746.44;5028499;28;20033;-63
2022/06/19 10:42:44;;;;;;;4.35;1.88;;;;;;;28.99;28.89;98746.25;5026776;28;20504;-63
2022/06/19 10:45:19;;;;;;;8.20;2.40;;;;;;;28.92;28.80;98743.75;5031138;28;20351;-60
2022/06/19 10:47:53;;;;;;;3.83;2.25;;;;;;;28.97;28.98;98741.00;5031446;28;20025;-65
2022/06/19 10:50:24;;;;;;;4.32;2.30;;;;;;;28.94;29.48;98733.31;5029642;28;20033;-65
2022/06/19 10:53:28;;;;;;;4.00;2.17;;;;;;;29.25;28.83;98749.88;5030654;28;20049;-66
2022/06/19 10:56:09;;;;;;;3.13;2.38;;;;;;;29.09;29.12;98738.00;5028740;28;20029;-66
2022/06/19 10:58:35;;;;;;;4.18;2.13;;;;;;;28.79;29.38;98745.94;5030525;28;20119;-65
2022/06/19 11:01:05;;;;;;;4.90;2.25;;;;;;;28.71;29.62;98740.09;5030561;28;20029;-64
2022/06/19 11:06:34;;;;;;;4.70;2.28;;;;;;;28.16;30.28;98743.97;5029832;28;21421;-65
2022/06/19 11:09:15;;;;;;;7.80;2.67;;;;;;;27.97;31.12;98753.72;5025707;28;20032;-64
2022/06/19 11:11:44;;;;;;;5.90;2.38;;;;;;;27.61;31.66;98765.28;5029378;28;20057;-64
2022/06/19 11:14:11;;;;;;;5.35;2.33;;;;;;;27.36;32.12;98756.56;5030432;28;20026;-66
2022/06/19 11:16:57;;;;;;;5.20;2.67;;;;;;;27.27;32.38;98771.03;5030477;28;20045;-63
2022/06/19 11:19:31;;;;;;;;;;;;;;;27.42;31.80;98765.69;5026691;28;20117;-64
2022/06/19 11:21:56;;;;;;;2.53;2.10;;;;;;;27.15;32.67;98763.78;5026558;28;19943;-61
2022/06/19 11:24:28;;;;;;;2.88;2.28;;;;;;;27.16;32.50;98776.44;5030668;28;20462;-64
2022/06/19 11:26:55;;;;;;;8.13;2.80;;;;;;;27.03;33.31;98766.69;5028072;28;20124;-63
2022/06/19 11:29:24;;;;;;;5.38;2.75;;;;;;;26.89;34.14;98765.44;5030430;28;20112;-66
2022/06/19 11:32:09;;;;;;;6.60;2.47;;;;;;;26.90;33.47;98756.09;5029352;28;20057;-64
2022/06/19 11:34:54;;;;;;;5.75;2.60;;;;;;;26.58;33.64;98745.84;5024975;28;20029;-65
2022/06/19 11:37:32;;;;;;;7.18;2.35;;;;;;;26.68;34.03;98776.13;5030369;28;20081;-66
2022/06/19 11:39:58;;;;;;;7.50;2.50;;;;;;;26.43;35.07;98763.75;5029957;28;20033;-64
2022/06/19 11:42:38;;;;;;;5.72;2.75;;;;;;;26.63;34.41;98767.84;5031147;28;20037;-64
2022/06/19 11:45:04;;;;;;;5.60;2.78;;;;;;;26.61;34.62;98759.84;5031508;28;20080;-64
2022/06/19 11:47:42;;;;;;;6.95;2.90;;;;;;;26.87;34.21;98770.34;5031419;28;20383;-64
2022/06/19 11:50:17;;;;;;;5.65;2.50;;;;;;;27.02;34.18;98753.19;5031019;28;20052;-64
2022/06/19 11:52:57;;;;;;;6.67;2.83;;;;;;;27.49;32.81;98758.03;5031365;28;20044;-64
2022/06/19 11:55:29;;;;;;;4.93;2.45;;;;;;;27.63;32.65;98771.38;5031246;28;20063;-65
2022/06/19 11:58:30;;;;;;;10.43;2.72;;;;;;;27.87;32.67;98777.34;5030440;28;20412;-65
2022/06/19 12:01:08;;;;;;;9.38;3.13;;;;;;;27.77;32.76;98747.03;5029308;28;20053;-64